Time;durP1;ratioP1;P1;durP2;ratioP2;P2;SDS_P1;SDS_P2;PMS_P1;PMS_P2;Temp;Humidity;BMP_temperature;BMP_pressure;BME280_temperature;BME280_humidity;BME280_pressure;Samples;Min_cycle;Max_cycle;Signal;HPM_P1;HPM_P2
2023/05/10 00:12:40;;;;;;;15.50;4.60;;;;;;;7.83;100.00;101382.24;102688;1291;600660;-50
2023/05/10 00:15:08;;;;;;;9.40;3.90;;;;;;;7.82;100.00;101386.20;104792;1271;61806;-49
2023/05/10 00:17:35;;;;;;;7.00;3.20;;;;;;;7.86;100.00;101385.71;104847;1266;62786;-49
2023/05/10 00:20:04;;;;;;;15.40;3.60;;;;;;;7.90;100.00;101392.95;104793;1270;74171;-51
2023/05/10 00:22:32;;;;;;;11.20;3.60;;;;;;;7.90;100.00;101399.32;104823;1271;67202;-50
2023/05/10 00:24:59;;;;;;;17.30;4.00;;;;;;;7.87;100.00;101407.55;104808;1266;74419;-49
2023/05/10 00:27:26;;;;;;;19.10;3.60;;;;;;;7.82;100.00;101404.42;104796;1266;296969;-50
2023/05/10 00:29:53;;;;;;;6.40;3.70;;;;;;;7.75;100.00;101402.46;105586;1256;61655;-49
2023/05/10 00:32:20;;;;;;;16.30;3.90;;;;;;;7.70;100.00;101407.59;105381;1265;74884;-49
2023/05/10 00:34:47;;;;;;;6.30;3.80;;;;;;;7.67;100.00;101407.89;105611;1257;67862;-49
2023/05/10 00:37:14;;;;;;;7.10;3.80;;;;;;;7.64;100.00;101405.11;105244;1259;73272;-49
2023/05/10 00:39:41;;;;;;;6.70;3.90;;;;;;;7.61;100.00;101397.71;105333;1259;61770;-49
2023/05/10 00:42:08;;;;;;;7.00;3.40;;;;;;;7.59;100.00;101396.84;105380;1264;62032;-50
2023/05/10 00:44:35;;;;;;;12.60;3.40;;;;;;;7.56;100.00;101393.71;105331;1264;75727;-49
2023/05/10 00:47:02;;;;;;;8.20;3.60;;;;;;;7.53;100.00;101392.32;105218;1260;66006;-50
2023/05/10 00:49:29;;;;;;;8.80;3.90;;;;;;;7.53;100.00;101394.02;105327;1259;74311;-50
2023/05/10 00:51:56;;;;;;;10.60;3.70;;;;;;;7.52;100.00;101396.95;105356;1259;62651;-50
2023/05/10 00:54:23;;;;;;;12.50;3.70;;;;;;;7.48;100.00;101400.34;105369;1257;63289;-49
2023/05/10 00:56:51;;;;;;;11.60;3.50;;;;;;;7.45;100.00;101400.48;105395;1259;74299;-49
2023/05/10 00:59:18;;;;;;;20.50;3.40;;;;;;;7.43;100.00;101408.01;105371;1263;67263;-49
2023/05/10 01:01:45;;;;;;;7.80;3.50;;;;;;;7.40;100.00;101401.98;105309;1260;74445;-50
2023/05/10 01:04:13;;;;;;;6.60;3.50;;;;;;;7.34;100.00;101399.86;105373;1258;62611;-49
2023/05/10 01:06:41;;;;;;;5.10;2.90;;;;;;;7.27;100.00;101391.38;105394;1260;62236;-49
2023/05/10 01:09:09;;;;;;;7.30;3.30;;;;;;;7.21;100.00;101377.75;105250;1260;74756;-49
2023/05/10 01:11:38;;;;;;;6.10;3.50;;;;;;;7.15;100.00;101359.83;105317;1259;67434;-50
2023/05/10 01:14:05;;;;;;;8.20;4.10;;;;;;;7.09;100.00;101341.75;105274;1262;74074;-49
2023/05/10 01:16:33;;;;;;;8.40;3.40;;;;;;;7.05;100.00;101326.09;105218;1259;62797;-50
2023/05/10 01:19:00;;;;;;;12.40;3.60;;;;;;;7.00;100.00;101311.80;105314;1265;61815;-49
2023/05/10 01:21:53;;;;;;;7.90;3.70;;;;;;;6.94;100.00;101304.70;105329;1264;75790;-49
2023/05/10 01:24:22;;;;;;;8.70;3.90;;;;;;;6.88;100.00;101303.09;105433;1263;66639;-49
2023/05/10 01:27:01;;;;;;;7.40;4.00;;;;;;;6.80;100.00;101296.48;105385;1259;73959;-49
2023/05/10 01:29:50;;;;;;;5.40;2.90;;;;;;;6.72;100.00;101288.02;105281;1259;63376;-49
2023/05/10 01:32:43;;;;;;;22.70;4.50;;;;;;;6.64;100.00;101272.30;105352;1262;62140;-49
2023/05/10 01:35:14;;;;;;;;;;;;;;;6.63;100.00;101241.91;105341;1263;75714;-49
2023/05/10 01:37:41;;;;;;;6.00;4.30;;;;;;;6.62;100.00;101203.16;105293;1264;66120;-49
2023/05/10 01:40:39;;;;;;;8.40;4.40;;;;;;;6.57;100.00;101183.89;105326;1265;75427;-49
2023/05/10 01:43:10;;;;;;;7.70;3.60;;;;;;;6.47;100.00;101168.20;105313;1259;62547;-49
2023/05/10 01:45:47;;;;;;;7.80;4.00;;;;;;;6.41;100.00;101155.78;105227;1259;62115;-50
2023/05/10 01:48:14;;;;;;;10.00;3.80;;;;;;;6.34;100.00;101151.61;105368;1265;74484;-49
2023/05/10 01:50:43;;;;;;;6.60;4.20;;;;;;;6.28;100.00;101149.14;105223;1259;67514;-50
2023/05/10 01:53:11;;;;;;;9.30;3.80;;;;;;;6.22;100.00;101149.10;105294;1265;75502;-49
2023/05/10 01:55:45;;;;;;;7.20;3.70;;;;;;;6.16;100.00;101148.33;105248;1259;62570;-49
2023/05/10 01:58:19;;;;;;;6.60;3.90;;;;;;;6.09;100.00;101154.26;105271;1259;61486;-50
2023/05/10 02:00:46;;;;;;;5.90;3.30;;;;;;;6.03;100.00;101164.13;105231;1259;74770;-50
2023/05/10 02:03:13;;;;;;;8.10;3.90;;;;;;;5.98;100.00;101171.23;105258;1265;66370;-50
2023/05/10 02:05:41;;;;;;;9.30;4.00;;;;;;;5.88;100.00;101174.71;104984;1267;75298;-50
2023/05/10 02:08:08;;;;;;;11.00;4.10;;;;;;;5.75;100.00;101174.38;105386;1259;61826;-50
2023/05/10 02:10:36;;;;;;;8.40;4.20;;;;;;;5.60;100.00;101170.75;105254;1265;60886;-49
2023/05/10 02:13:03;;;;;;;8.10;4.00;;;;;;;5.47;100.00;101174.19;105262;1264;75358;-50
2023/05/10 02:15:31;;;;;;;5.80;3.70;;;;;;;5.34;100.00;101179.80;105198;1265;67302;-49
2023/05/10 02:17:58;;;;;;;11.10;3.80;;;;;;;5.22;100.00;101194.52;105108;1265;75155;-50
2023/05/10 02:20:25;;;;;;;12.90;4.30;;;;;;;5.08;100.00;101210.39;104932;1262;62074;-50
2023/05/10 02:22:53;;;;;;;10.00;5.30;;;;;;;4.98;100.00;101238.10;105124;1267;61772;-49
2023/05/10 02:25:21;;;;;;;7.50;5.20;;;;;;;4.91;100.00;101275.77;105298;1261;75366;-50
2023/05/10 02:27:48;;;;;;;17.80;5.20;;;;;;;4.83;100.00;101311.39;105272;1259;67009;-50
2023/05/10 02:30:16;;;;;;;10.50;5.50;;;;;;;4.77;100.00;101337.45;105185;1262;73570;-48
2023/05/10 02:32:43;;;;;;;12.90;5.50;;;;;;;4.73;100.00;101360.29;105297;1262;62101;-49
2023/05/10 02:35:10;;;;;;;20.80;5.90;;;;;;;4.69;100.00;101381.05;105321;1264;61516;-48
2023/05/10 02:37:37;;;;;;;10.50;5.80;;;;;;;4.66;100.00;101394.50;105262;1264;75512;-49
2023/05/10 02:40:05;;;;;;;17.20;5.80;;;;;;;4.64;100.00;101402.83;105246;1260;66645;-48
2023/05/10 02:42:35;;;;;;;10.00;5.40;;;;;;;4.64;100.00;101419.08;105332;1264;75216;-49
2023/05/10 02:45:07;;;;;;;13.10;5.10;;;;;;;4.65;100.00;101432.27;105290;1260;64898;-48
2023/05/10 02:47:34;;;;;;;15.40;5.50;;;;;;;4.68;100.00;101443.97;105301;1259;62553;-50
2023/05/10 02:50:02;;;;;;;10.90;4.90;;;;;;;4.73;100.00;101448.19;105260;1260;74744;-50
2023/05/10 02:52:37;;;;;;;10.70;5.20;;;;;;;4.77;100.00;101446.56;105320;1260;67379;-48
2023/05/10 02:55:04;;;;;;;12.90;5.10;;;;;;;4.82;100.00;101451.62;105318;1263;75347;-48
2023/05/10 02:57:33;;;;;;;11.80;4.50;;;;;;;4.87;100.00;101454.29;105291;1263;63381;-48
2023/05/10 03:00:02;;;;;;;10.10;4.40;;;;;;;4.93;100.00;101458.52;105327;1263;63194;-49
2023/05/10 03:02:30;;;;;;;14.00;4.50;;;;;;;4.97;100.00;101459.98;105403;1263;75910;-49
2023/05/10 03:04:58;;;;;;;11.40;5.00;;;;;;;5.02;100.00;101458.87;105304;1264;67496;-49
2023/05/10 03:07:26;;;;;;;9.80;4.70;;;;;;;5.07;100.00;101455.23;105289;1259;75454;-48
2023/05/10 03:09:53;;;;;;;11.30;4.30;;;;;;;5.13;100.00;101448.99;105389;1259;63240;-49
2023/05/10 03:12:29;;;;;;;15.90;4.30;;;;;;;5.22;100.00;101443.54;105265;1265;63376;-49
2023/05/10 03:15:18;;;;;;;10.90;4.30;;;;;;;5.31;100.00;101445.76;105253;1272;75488;-49
2023/05/10 03:17:54;;;;;;;9.10;4.40;;;;;;;5.41;100.00;101432.08;105253;1264;66592;-48
2023/05/10 03:20:26;;;;;;;12.90;4.50;;;;;;;5.53;100.00;101417.05;105269;1263;75144;-49
2023/05/10 03:22:56;;;;;;;10.80;4.60;;;;;;;5.65;100.00;101407.14;105258;1265;62807;-48
2023/05/10 03:26:25;;;;;;;7.70;4.40;;;;;;;5.86;100.00;101359.18;102713;1296;600977;-50
2023/05/10 03:28:56;;;;;;;7.30;3.80;;;;;;;6.03;100.00;101350.20;105512;1262;64308;-50
2023/05/10 03:31:23;;;;;;;9.20;3.70;;;;;;;6.21;100.00;101334.02;105360;1257;62907;-50
2023/05/10 03:33:52;;;;;;;16.80;4.50;;;;;;;6.40;100.00;101318.66;105385;1257;73655;-50
2023/05/10 03:36:24;;;;;;;5.60;4.40;;;;;;;6.61;100.00;101295.25;105534;1262;67053;-50
2023/05/10 03:38:51;;;;;;;19.20;4.40;;;;;;;6.79;100.00;101269.55;105398;1263;219425;-51
2023/05/10 03:41:18;;;;;;;8.40;3.90;;;;;;;6.98;100.00;101245.53;105711;1257;63104;-50
2023/05/10 03:43:46;;;;;;;7.10;4.60;;;;;;;7.19;100.00;101224.77;105676;1254;62579;-50
2023/05/10 03:46:13;;;;;;;6.80;3.50;;;;;;;7.45;100.00;101207.09;105677;1260;74491;-50
2023/05/10 03:48:40;;;;;;;6.20;3.80;;;;;;;7.76;100.00;101180.80;105666;1261;67515;-50
2023/05/10 03:51:07;;;;;;;15.50;3.80;;;;;;;8.09;100.00;101159.11;105641;1254;74895;-50
2023/05/10 03:53:34;;;;;;;13.90;4.10;;;;;;;8.37;100.00;101139.75;105618;1258;62053;-50
2023/05/10 03:56:01;;;;;;;10.40;4.30;;;;;;;8.61;100.00;101133.79;105643;1260;62211;-50
2023/05/10 03:58:28;;;;;;;9.00;3.80;;;;;;;8.83;100.00;101142.05;105655;1256;74252;-50
2023/05/10 04:00:56;;;;;;;10.50;3.70;;;;;;;9.06;100.00;101157.88;105678;1254;66312;-50
2023/05/10 04:03:23;;;;;;;9.70;3.50;;;;;;;9.34;100.00;101177.48;105621;1254;75708;-50
2023/05/10 04:05:58;;;;;;;12.30;3.70;;;;;;;9.59;100.00;101214.64;105671;1257;61942;-51
2023/05/10 04:08:26;;;;;;;;;;;;;;;9.77;100.00;101262.00;105618;1260;62871;-51
2023/05/10 04:10:53;;;;;;;8.70;3.80;;;;;;;9.91;100.00;101302.65;105587;1263;74390;-50
2023/05/10 04:13:20;;;;;;;10.20;3.80;;;;;;;10.05;100.00;101336.59;105588;1257;67446;-50
2023/05/10 04:15:48;;;;;;;8.60;3.90;;;;;;;10.15;100.00;101353.82;105610;1257;74241;-50
2023/05/10 04:18:15;;;;;;;5.10;3.60;;;;;;;10.20;100.00;101371.92;105610;1258;62930;-50
2023/05/10 04:20:42;;;;;;;6.50;3.70;;;;;;;10.22;100.00;101381.91;105624;1257;62978;-49
2023/05/10 04:23:09;;;;;;;10.60;5.40;;;;;;;10.27;100.00;101387.44;105573;1260;75577;-50
2023/05/10 04:25:36;;;;;;;35.20;14.60;;;;;;;10.29;100.00;101395.20;105568;1257;67213;-50
2023/05/10 04:28:03;;;;;;;24.30;14.10;;;;;;;10.24;100.00;101399.86;105588;1258;75364;-49
2023/05/10 04:30:30;;;;;;;23.10;10.40;;;;;;;10.19;100.00;101406.08;105632;1261;61977;-49
2023/05/10 04:32:58;;;;;;;17.80;4.80;;;;;;;10.13;100.00;101416.25;105626;1260;61770;-50
2023/05/10 04:35:25;;;;;;;13.30;4.20;;;;;;;10.05;100.00;101434.71;105580;1258;74362;-50
2023/05/10 04:37:52;;;;;;;7.50;3.60;;;;;;;10.03;100.00;101443.86;105610;1257;67199;-50
2023/05/10 04:40:19;;;;;;;13.90;3.70;;;;;;;9.94;100.00;101459.89;105577;1260;75148;-50
2023/05/10 04:42:46;;;;;;;8.40;4.00;;;;;;;9.85;100.00;101465.92;105593;1257;62937;-50
2023/05/10 04:45:16;;;;;;;11.20;3.90;;;;;;;9.72;97.58;101468.50;105551;1260;61884;-49
2023/05/10 04:47:43;;;;;;;8.70;3.80;;;;;;;9.55;94.21;101482.77;105585;1260;75495;-49
2023/05/10 04:50:10;;;;;;;13.20;4.10;;;;;;;9.37;98.63;101496.52;105599;1260;66813;-49
2023/05/10 04:52:37;;;;;;;8.50;4.10;;;;;;;9.22;100.00;101507.14;105577;1258;75423;-49
2023/05/10 04:55:07;;;;;;;10.50;4.30;;;;;;;9.12;100.00;101499.52;105579;1257;62994;-49
2023/05/10 04:57:34;;;;;;;10.70;3.70;;;;;;;9.00;100.00;101493.27;105648;1257;63048;-49
2023/05/10 05:00:01;;;;;;;16.20;4.10;;;;;;;8.90;100.00;101490.11;105586;1260;75361;-49
2023/05/10 05:02:28;;;;;;;11.30;4.40;;;;;;;8.84;100.00;101485.45;105665;1260;67258;-51
2023/05/10 05:04:57;;;;;;;13.10;4.20;;;;;;;8.84;100.00;101480.09;105632;1257;74200;-49
2023/05/10 05:07:25;;;;;;;12.00;4.80;;;;;;;8.81;100.00;101480.60;105832;1254;62846;-49
2023/05/10 05:09:52;;;;;;;16.00;5.30;;;;;;;8.85;100.00;101482.35;105796;1255;62460;-50
2023/05/10 05:12:19;;;;;;;14.10;5.40;;;;;;;8.94;100.00;101482.39;105800;1257;75964;-49
2023/05/10 05:14:46;;;;;;;7.00;4.50;;;;;;;9.03;100.00;101482.09;105902;1256;67350;-49
2023/05/10 05:17:13;;;;;;;11.60;4.30;;;;;;;9.12;100.00;101481.27;105844;1254;73743;-50
2023/05/10 05:19:40;;;;;;;9.80;4.30;;;;;;;9.25;100.00;101484.59;105812;1253;61949;-49
2023/05/10 05:22:07;;;;;;;22.20;5.80;;;;;;;9.39;100.00;101481.18;105883;1254;62810;-49
2023/05/10 05:24:37;;;;;;;17.00;4.70;;;;;;;9.48;100.00;101483.96;105859;1254;75924;-49
2023/05/10 05:27:04;;;;;;;18.10;5.50;;;;;;;9.59;100.00;101486.40;105845;1254;66518;-50
2023/05/10 05:29:31;;;;;;;16.80;5.30;;;;;;;9.71;100.00;101482.46;105859;1252;75384;-49
2023/05/10 05:31:59;;;;;;;12.50;4.70;;;;;;;9.85;98.42;101484.38;105844;1254;61671;-49
2023/05/10 05:34:26;;;;;;;18.90;4.80;;;;;;;10.02;94.53;101482.66;105806;1257;60746;-50
2023/05/10 05:36:53;;;;;;;19.80;4.00;;;;;;;10.23;94.33;101482.66;105799;1257;75735;-50
2023/05/10 05:39:20;;;;;;;9.10;3.90;;;;;;;10.55;90.32;101475.40;105878;1257;66283;-50
2023/05/10 05:41:47;;;;;;;6.80;3.50;;;;;;;10.96;85.69;101471.83;105838;1257;75173;-49
2023/05/10 05:44:14;;;;;;;22.30;3.80;;;;;;;11.33;77.23;101455.25;105827;1253;62896;-49
2023/05/10 05:46:41;;;;;;;10.80;3.40;;;;;;;11.68;70.61;101445.86;105840;1253;62684;-50
2023/05/10 05:49:08;;;;;;;13.10;3.90;;;;;;;12.05;66.62;101426.73;105853;1257;75459;-50
2023/05/10 05:51:35;;;;;;;5.60;3.10;;;;;;;12.39;62.69;101398.03;105828;1254;67524;-49
2023/05/10 05:54:04;;;;;;;13.00;3.40;;;;;;;12.72;61.44;101408.73;105842;1257;74906;-51
2023/05/10 05:56:31;;;;;;;12.10;4.20;;;;;;;12.99;59.51;101377.20;105845;1253;61584;-49
2023/05/10 05:58:58;;;;;;;8.90;3.30;;;;;;;13.19;57.28;101343.12;105838;1253;61027;-49
2023/05/10 06:01:25;;;;;;;4.30;3.00;;;;;;;13.36;56.57;101352.39;105887;1257;73585;-50
2023/05/10 06:03:52;;;;;;;12.20;3.20;;;;;;;13.35;54.07;101273.39;105826;1252;66859;-50
2023/05/10 06:06:19;;;;;;;9.30;3.60;;;;;;;13.30;53.60;101297.56;105791;1260;74462;-53
2023/05/10 06:08:46;;;;;;;12.60;3.30;;;;;;;13.34;53.08;101296.79;105574;1252;62160;-50
2023/05/10 06:11:13;;;;;;;6.80;3.10;;;;;;;13.50;52.29;101261.71;105720;1255;62037;-53
2023/05/10 06:13:41;;;;;;;6.20;3.30;;;;;;;13.56;51.76;101263.17;105838;1257;73621;-53
2023/05/10 06:16:09;;;;;;;5.50;3.30;;;;;;;13.56;51.58;101271.15;105805;1257;66466;-52
2023/05/10 06:18:36;;;;;;;5.80;3.20;;;;;;;13.37;50.87;101246.13;105795;1254;74605;-50
2023/05/10 06:21:03;;;;;;;5.20;3.60;;;;;;;13.19;51.87;101335.84;105818;1257;62875;-50
2023/05/10 06:23:30;;;;;;;7.70;3.70;;;;;;;13.29;52.03;101346.45;105902;1254;62547;-50
2023/05/10 06:25:57;;;;;;;9.30;3.50;;;;;;;13.30;51.61;101326.68;105796;1257;75337;-49
2023/05/10 06:28:24;;;;;;;17.40;3.80;;;;;;;13.37;51.23;101310.77;105845;1257;66392;-50
2023/05/10 06:30:51;;;;;;;8.10;3.60;;;;;;;13.49;51.01;101299.35;105851;1257;75077;-51
2023/05/10 06:33:18;;;;;;;3.60;3.10;;;;;;;13.62;50.96;101301.54;105805;1257;62790;-50
2023/05/10 06:35:45;;;;;;;8.20;3.40;;;;;;;13.72;50.88;101303.27;105820;1254;63063;-50
2023/05/10 06:38:12;;;;;;;14.20;3.20;;;;;;;13.86;49.94;101243.70;105855;1257;74796;-50
2023/05/10 06:40:42;;;;;;;4.10;3.20;;;;;;;13.98;48.88;101176.65;105805;1253;67147;-50
2023/05/10 06:43:09;;;;;;;7.30;3.30;;;;;;;14.00;48.42;101154.39;105861;1257;74840;-50
2023/05/10 06:45:36;;;;;;;11.80;2.80;;;;;;;14.08;47.80;101130.11;105828;1257;62934;-50
2023/05/10 06:48:03;;;;;;;13.20;3.20;;;;;;;14.22;47.60;101113.47;105835;1254;62941;-50
2023/05/10 06:50:30;;;;;;;11.00;2.90;;;;;;;14.38;46.84;101075.44;105805;1257;73636;-50
2023/05/10 06:52:57;;;;;;;12.80;2.70;;;;;;;14.44;45.64;100991.08;105822;1257;66818;-51
2023/05/10 06:55:25;;;;;;;8.70;2.30;;;;;;;14.31;45.53;101003.75;105831;1253;75168;-50
2023/05/10 06:57:52;;;;;;;4.20;2.40;;;;;;;14.36;44.68;100938.84;105833;1254;62113;-50
2023/05/10 07:00:19;;;;;;;7.30;2.10;;;;;;;14.48;44.06;100905.55;105859;1257;61784;-49
2023/05/10 07:02:47;;;;;;;2.40;1.90;;;;;;;14.51;42.67;100803.56;105824;1252;74306;-49
2023/05/10 07:05:14;;;;;;;1.90;1.80;;;;;;;14.33;42.63;100808.02;105811;1254;65876;-49
2023/05/10 07:07:42;;;;;;;6.30;2.30;;;;;;;14.26;42.23;100800.61;105896;1254;73023;-49
2023/05/10 07:10:09;;;;;;;3.60;1.70;;;;;;;14.16;42.73;100863.70;105833;1254;62554;-49
2023/05/10 07:12:36;;;;;;;6.00;2.20;;;;;;;14.25;43.51;100938.63;105778;1252;61439;-49
2023/05/10 07:15:05;;;;;;;4.50;2.10;;;;;;;14.26;44.11;101009.92;105851;1254;74597;-49
2023/05/10 07:17:33;;;;;;;5.60;1.90;;;;;;;14.38;43.72;100969.70;105883;1254;67007;-49
2023/05/10 07:20:00;;;;;;;3.60;2.30;;;;;;;14.64;43.10;100933.25;105823;1253;75981;-51
2023/05/10 07:22:27;;;;;;;2.50;2.30;;;;;;;14.83;40.98;100732.09;105811;1256;62179;-51
2023/05/10 07:24:54;;;;;;;2.10;1.70;;;;;;;14.73;41.02;100734.48;105883;1254;62484;-54
2023/05/10 07:27:21;;;;;;;10.50;2.40;;;;;;;14.84;42.28;100862.02;105793;1257;75489;-51
2023/05/10 07:29:48;;;;;;;11.40;2.10;;;;;;;15.12;41.29;100793.02;105824;1254;66939;-51
2023/05/10 07:32:15;;;;;;;5.60;1.90;;;;;;;15.26;41.06;100757.13;105788;1257;75237;-50
2023/05/10 07:34:43;;;;;;;5.30;1.70;;;;;;;15.42;39.59;100620.07;105859;1254;63503;-57
2023/05/10 07:37:10;;;;;;;5.70;1.70;;;;;;;15.70;39.18;100583.77;105844;1253;61026;-54
2023/05/10 07:39:37;;;;;;;7.20;2.50;;;;;;;15.98;37.36;100397.73;105793;1257;74218;-50
2023/05/10 07:42:04;;;;;;;4.20;1.60;;;;;;;16.04;36.84;100345.09;105788;1253;66894;-50
2023/05/10 07:44:31;;;;;;;21.20;2.30;;;;;;;16.04;36.81;100353.95;105785;1254;75148;-51
2023/05/10 07:46:58;;;;;;;6.60;1.70;;;;;;;16.07;37.37;100438.97;105803;1254;63053;-51
2023/05/10 07:49:25;;;;;;;7.40;1.80;;;;;;;16.09;35.95;100291.30;105825;1258;63060;-51
2023/05/10 07:51:52;;;;;;;4.20;1.40;;;;;;;15.95;36.09;100320.95;105904;1253;76365;-51
2023/05/10 07:54:19;;;;;;;1.90;1.70;;;;;;;15.67;36.03;100331.31;105807;1257;67496;-50
2023/05/10 07:56:47;;;;;;;7.70;2.60;;;;;;;15.37;36.89;100424.85;105779;1254;74081;-49
2023/05/10 07:59:17;;;;;;;5.00;2.00;;;;;;;15.33;37.38;100503.25;105829;1253;61792;-49
2023/05/10 08:01:44;;;;;;;7.10;1.90;;;;;;;15.32;37.86;100561.16;105802;1252;62956;-49
2023/05/10 08:04:11;;;;;;;4.50;1.80;;;;;;;15.38;38.09;100595.00;105807;1254;74648;-50
2023/05/10 08:06:39;;;;;;;5.30;2.10;;;;;;;15.46;38.17;100604.11;105863;1255;66133;-50
2023/05/10 08:09:06;;;;;;;5.10;2.20;;;;;;;15.54;37.91;100591.30;105888;1254;74231;-51
2023/05/10 08:11:33;;;;;;;9.30;1.90;;;;;;;15.73;37.38;100538.08;105808;1254;63005;-50
2023/05/10 08:14:01;;;;;;;7.10;1.50;;;;;;;15.94;37.17;100516.91;105798;1254;61824;-51
2023/05/10 08:16:28;;;;;;;3.50;1.70;;;;;;;16.14;37.12;100502.93;105820;1257;75573;-50
2023/05/10 08:18:55;;;;;;;9.40;1.70;;;;;;;16.39;36.65;100467.23;105809;1254;67898;-51
2023/05/10 08:21:22;;;;;;;23.40;2.30;;;;;;;16.56;36.17;100423.85;105822;1254;74138;-50
2023/05/10 08:23:49;;;;;;;10.00;2.60;;;;;;;16.56;35.27;100326.66;105789;1253;62826;-50
2023/05/10 08:26:16;;;;;;;3.50;1.80;;;;;;;16.61;34.99;100302.55;105791;1254;62663;-50
2023/05/10 08:28:44;;;;;;;13.10;1.90;;;;;;;16.82;34.92;100290.63;105815;1257;74983;-50
2023/05/10 08:31:11;;;;;;;4.70;1.40;;;;;;;17.14;33.51;100136.58;105857;1254;66930;-51
2023/05/10 08:33:38;;;;;;;4.10;1.60;;;;;;;17.24;33.66;100141.13;105792;1257;74823;-51
2023/05/10 08:36:08;;;;;;;2.30;1.40;;;;;;;17.34;33.13;100103.63;105820;1254;61975;-51
2023/05/10 08:38:35;;;;;;;4.70;1.60;;;;;;;17.24;33.20;100106.28;105845;1254;62642;-51
2023/05/10 08:41:03;;;;;;;2.50;1.50;;;;;;;16.94;33.39;100133.73;105841;1252;76565;-51
2023/05/10 08:43:31;;;;;;;15.70;1.90;;;;;;;16.63;33.75;100184.68;105679;1257;67455;-50
2023/05/10 08:46:00;;;;;;;2.80;1.90;;;;;;;16.25;34.50;100259.92;105708;1259;74122;-51
2023/05/10 08:48:27;;;;;;;3.30;1.80;;;;;;;16.00;35.85;100403.38;105823;1257;61949;-51
2023/05/10 08:50:54;;;;;;;4.40;2.00;;;;;;;15.89;37.04;100526.54;105637;1254;62923;-51
2023/05/10 08:53:22;;;;;;;4.70;1.90;;;;;;;15.92;36.78;100533.55;105712;1258;76538;-50
2023/05/10 08:55:49;;;;;;;7.10;2.40;;;;;;;15.97;36.06;100496.10;105841;1253;66513;-51
2023/05/10 08:58:17;;;;;;;4.50;1.40;;;;;;;15.92;35.78;100454.02;105688;1254;75157;-52
2023/05/10 09:00:43;;;;;;;9.40;1.70;;;;;;;15.96;36.36;100504.15;105838;1252;63359;-51
2023/05/10 09:03:11;;;;;;;2.70;1.40;;;;;;;16.12;35.74;100458.08;105818;1257;61705;-51
2023/05/10 09:05:38;;;;;;;8.10;1.50;;;;;;;16.19;35.14;100399.81;105813;1257;76424;-51
2023/05/10 09:08:06;;;;;;;2.70;1.90;;;;;;;16.05;35.32;100411.17;105746;1254;67120;-51
2023/05/10 09:10:32;;;;;;;4.30;1.50;;;;;;;15.90;36.07;100482.11;105755;1260;75212;-51
2023/05/10 09:12:59;;;;;;;4.50;1.30;;;;;;;15.72;35.91;100506.98;105799;1254;63122;-50
2023/05/10 09:15:27;;;;;;;4.50;1.50;;;;;;;15.53;35.49;100454.99;105792;1257;62812;-51
2023/05/10 09:17:54;;;;;;;2.40;1.40;;;;;;;15.45;35.56;100481.39;105672;1259;74895;-50
2023/05/10 09:20:22;;;;;;;2.60;1.50;;;;;;;15.42;35.00;100432.85;105873;1252;66934;-51
2023/05/10 09:22:49;;;;;;;5.40;1.80;;;;;;;15.38;34.98;100424.45;105931;1254;73506;-51
2023/05/10 09:25:16;;;;;;;3.80;1.20;;;;;;;15.39;35.25;100433.11;105802;1254;60768;-50
2023/05/10 09:27:45;;;;;;;3.20;1.80;;;;;;;15.44;35.55;100467.01;105809;1257;61750;-51
2023/05/10 09:30:16;;;;;;;5.50;1.60;;;;;;;15.49;35.91;100504.00;105814;1255;76447;-51
2023/05/10 09:32:45;;;;;;;6.10;1.70;;;;;;;15.53;36.02;100518.14;105863;1254;66104;-49
2023/05/10 09:35:20;;;;;;;3.50;1.70;;;;;;;15.67;35.85;100512.71;105793;1253;74482;-51
2023/05/10 09:37:49;;;;;;;4.30;1.40;;;;;;;15.75;35.15;100446.13;105850;1253;62837;-50
2023/05/10 09:40:23;;;;;;;2.70;1.40;;;;;;;15.89;35.29;100450.66;105792;1257;61790;-51
2023/05/10 09:43:01;;;;;;;6.60;1.60;;;;;;;16.05;35.30;100453.30;105745;1257;74583;-51
2023/05/10 09:45:30;;;;;;;3.00;1.90;;;;;;;16.25;35.29;100446.40;105636;1254;66269;-51
2023/05/10 09:47:57;;;;;;;8.30;2.00;;;;;;;16.37;34.41;100360.55;105657;1254;75175;-53
2023/05/10 09:50:25;;;;;;;3.90;1.70;;;;;;;16.42;34.01;100320.46;105783;1253;61601;-54
2023/05/10 09:52:58;;;;;;;7.00;1.80;;;;;;;16.47;33.72;100288.04;105876;1252;62603;-54
2023/05/10 09:55:44;;;;;;;5.40;1.90;;;;;;;16.60;33.30;100247.54;105773;1254;76386;-51
2023/05/10 09:58:14;;;;;;;5.60;1.90;;;;;;;16.79;34.06;100269.67;105798;1254;65515;-50
2023/05/10 10:00:43;;;;;;;2.90;1.70;;;;;;;17.00;34.17;100282.09;105758;1254;74160;-50
2023/05/10 10:03:15;;;;;;;4.50;2.90;;;;;;;17.15;34.11;100276.68;105848;1254;60837;-51
2023/05/10 10:05:43;;;;;;;3.40;1.60;;;;;;;17.28;33.45;100223.94;105773;1257;62111;-51
2023/05/10 10:08:10;;;;;;;3.40;1.60;;;;;;;17.13;33.36;100210.34;105846;1257;76256;-51
2023/05/10 10:10:40;;;;;;;18.40;2.10;;;;;;;16.68;34.50;100300.80;105799;1254;67110;-51
2023/05/10 10:13:07;;;;;;;4.60;2.10;;;;;;;15.76;37.83;100621.77;105814;1253;74125;-51
2023/05/10 10:15:34;;;;;;;6.10;1.90;;;;;;;14.99;40.05;100845.90;105815;1254;61859;-51
2023/05/10 10:18:03;;;;;;;12.90;2.10;;;;;;;14.38;41.50;100987.39;105764;1252;61865;-50
2023/05/10 10:20:31;;;;;;;4.20;2.00;;;;;;;13.86;43.06;101141.16;105814;1257;74249;-51
2023/05/10 10:22:58;;;;;;;5.40;2.10;;;;;;;13.53;44.34;101256.45;105790;1257;66569;-50
2023/05/10 10:25:25;;;;;;;2.50;1.90;;;;;;;13.42;44.67;101312.61;105796;1257;74825;-49
2023/05/10 10:27:52;;;;;;;5.00;1.90;;;;;;;13.41;43.80;101272.25;105789;1254;61530;-49
2023/05/10 10:30:36;;;;;;;5.30;1.70;;;;;;;13.30;43.91;101281.59;105795;1257;62137;-50
2023/05/10 10:33:03;;;;;;;11.40;2.50;;;;;;;13.17;44.58;101345.42;105818;1254;75706;-51
2023/05/10 10:35:39;;;;;;;4.10;2.00;;;;;;;13.20;44.68;101359.40;105774;1254;65941;-51
2023/05/10 10:38:08;;;;;;;3.20;2.00;;;;;;;13.27;44.17;101330.36;105810;1254;75663;-51
2023/05/10 10:40:35;;;;;;;4.10;2.30;;;;;;;13.45;44.34;101338.06;105793;1257;61740;-51
2023/05/10 10:43:34;;;;;;;4.10;1.80;;;;;;;13.73;43.99;101301.36;105840;1252;62566;-51
2023/05/10 10:46:15;;;;;;;4.00;1.90;;;;;;;14.00;43.36;101280.39;105626;1254;75531;-49
2023/05/10 10:48:53;;;;;;;6.70;2.40;;;;;;;14.09;42.13;101175.90;105798;1257;65876;-50
2023/05/10 10:51:20;;;;;;;4.70;1.80;;;;;;;14.11;41.91;101155.75;105769;1254;74441;-50
2023/05/10 10:53:47;;;;;;;4.60;1.70;;;;;;;14.07;40.54;101042.16;105746;1253;62740;-51
2023/05/10 10:56:15;;;;;;;7.30;1.70;;;;;;;13.90;41.40;101095.30;105763;1254;62778;-50
2023/05/10 10:58:50;;;;;;;1.70;1.40;;;;;;;13.79;41.16;101105.08;105784;1257;76047;-51
2023/05/10 11:01:18;;;;;;;;;;;;;;;13.66;40.20;101025.58;105768;1254;66669;-51
2023/05/10 11:04:17;;;;;;;7.10;1.70;;;;;;;13.46;41.06;101071.73;105798;1254;74778;-51
2023/05/10 11:06:44;;;;;;;6.00;1.60;;;;;;;13.37;41.96;101141.92;105794;1258;63135;-51
2023/05/10 11:09:12;;;;;;;2.50;1.60;;;;;;;13.40;41.31;101121.95;105766;1255;63204;-51
2023/05/10 11:11:50;;;;;;;7.70;1.70;;;;;;;13.39;41.30;101109.65;105740;1254;75189;-51
2023/05/10 11:14:20;;;;;;;7.00;1.40;;;;;;;13.38;41.54;101127.19;105814;1257;65826;-49
2023/05/10 11:16:47;;;;;;;4.90;1.60;;;;;;;13.40;41.48;101125.94;105825;1257;75232;-50
2023/05/10 11:19:16;;;;;;;5.50;1.50;;;;;;;13.44;41.12;101096.59;105744;1257;61513;-50
2023/05/10 11:22:05;;;;;;;2.20;2.00;;;;;;;13.43;41.64;101131.10;105781;1257;63152;-49
2023/05/10 11:24:33;;;;;;;5.40;3.20;;;;;;;13.47;41.78;101147.51;105764;1254;75050;-51
2023/05/10 11:27:00;;;;;;;8.50;4.30;;;;;;;13.56;41.53;101128.97;105786;1252;67415;-51
2023/05/10 11:29:28;;;;;;;8.30;2.40;;;;;;;13.63;41.36;101108.85;105752;1257;75604;-51
2023/05/10 11:31:57;;;;;;;6.00;2.80;;;;;;;13.73;41.43;101099.13;105735;1257;61790;-51
2023/05/10 11:34:35;;;;;;;4.70;2.80;;;;;;;13.77;41.38;101106.85;105795;1254;62797;-51